createdAt,value
2023-04-18T05:01:15.853Z,500.00
2023-04-18T05:02:15.955Z,500.00
2023-04-18T05:03:16.049Z,500.00
2023-04-18T05:04:16.209Z,500.00
2023-04-18T05:05:15.936Z,500.00
2023-04-18T05:06:15.971Z,500.00
2023-04-18T05:07:16.026Z,400.00
2023-04-18T05:08:16.042Z,400.00
2023-04-18T05:09:16.055Z,400.00
2023-04-18T05:10:16.112Z,400.00
2023-04-18T05:11:16.110Z,400.00
2023-04-18T05:12:16.096Z,400.00
2023-04-18T05:13:16.102Z,400.00
2023-04-18T05:14:16.318Z,400.00
2023-04-18T05:15:16.153Z,400.00
2023-04-18T05:16:16.185Z,400.00
2023-04-18T05:17:16.216Z,400.00
2023-04-18T05:18:16.267Z,400.00
2023-04-18T05:19:16.314Z,400.00
2023-04-18T05:20:16.360Z,400.00
2023-04-18T05:21:16.390Z,400.00
2023-04-18T05:22:16.491Z,400.00
2023-04-18T05:23:16.529Z,400.00
2023-04-18T05:24:16.815Z,400.00
2023-04-18T05:25:16.660Z,406.00
2023-04-18T05:26:16.720Z,442.00
2023-04-18T05:27:18.174Z,481.00
2023-04-18T05:28:16.828Z,500.00
2023-04-18T05:29:16.842Z,505.00
2023-04-18T05:30:16.815Z,500.00
2023-04-18T05:31:16.934Z,500.00
2023-04-18T05:32:16.846Z,501.00
2023-04-18T05:33:16.925Z,500.00
2023-04-18T05:34:16.958Z,501.00
2023-04-18T05:35:16.853Z,501.00
2023-04-18T05:36:16.935Z,501.00
2023-04-18T05:37:16.879Z,500.00
2023-04-18T05:38:16.904Z,505.00
2023-04-18T05:39:16.896Z,505.00
2023-04-18T05:40:16.927Z,505.00
2023-04-18T05:41:16.965Z,504.00
2023-04-18T05:42:16.954Z,501.00
2023-04-18T05:43:16.969Z,507.00
2023-04-18T05:44:17.093Z,505.00
2023-04-18T05:45:16.986Z,501.00
2023-04-18T05:46:17.047Z,500.00
2023-04-18T05:47:16.991Z,501.00
2023-04-18T05:48:16.978Z,503.00
2023-04-18T05:49:16.981Z,504.00
2023-04-18T05:50:17.017Z,503.00
2023-04-18T05:51:17.040Z,500.00
2023-04-18T05:52:17.045Z,501.00
2023-04-18T05:53:17.007Z,500.00
2023-04-18T05:54:17.066Z,504.00
2023-04-18T05:55:17.109Z,504.00
2023-04-18T05:56:17.037Z,512.00
2023-04-18T05:57:17.055Z,512.00
2023-04-18T05:58:17.093Z,514.00
2023-04-18T05:59:17.059Z,512.00
2023-04-18T06:00:17.094Z,509.00
2023-04-18T06:01:17.123Z,507.00
2023-04-18T06:02:17.205Z,517.00
2023-04-18T06:03:17.489Z,516.00
2023-04-18T06:04:17.708Z,518.00
2023-04-18T06:05:17.436Z,520.00
2023-04-18T06:06:17.394Z,522.00
2023-04-18T06:07:17.386Z,532.00
2023-04-18T06:08:17.485Z,538.00
2023-04-18T06:09:17.549Z,526.00
2023-04-18T06:10:17.622Z,528.00
2023-04-18T06:11:17.688Z,530.00
2023-04-18T06:12:17.685Z,536.00
2023-04-18T06:13:17.749Z,533.00
2023-04-18T06:14:17.771Z,541.00
2023-04-18T06:15:17.848Z,543.00
2023-04-18T06:16:17.954Z,541.00
2023-04-18T06:17:17.968Z,542.00
2023-04-18T06:18:17.993Z,544.00
2023-04-18T06:19:18.004Z,544.00
2023-04-18T06:20:18.069Z,561.00
2023-04-18T06:21:18.131Z,550.00
2023-04-18T06:22:18.163Z,547.00
2023-04-18T06:23:18.180Z,547.00
2023-04-18T06:24:18.273Z,545.00
2023-04-18T06:25:18.304Z,552.00
2023-04-18T06:26:18.277Z,550.00
2023-04-18T06:27:30.668Z,546.00
2023-04-18T06:28:19.346Z,546.00
2023-04-18T06:29:18.328Z,548.00
2023-04-18T06:30:18.336Z,548.00
2023-04-18T06:31:18.424Z,548.00
2023-04-18T06:32:18.353Z,548.00
2023-04-18T06:33:18.292Z,557.00
2023-04-18T06:34:18.299Z,554.00
2023-04-18T06:35:18.278Z,552.00
2023-04-18T06:36:18.244Z,554.00
2023-04-18T06:37:18.303Z,548.00
2023-04-18T06:38:18.275Z,554.00
2023-04-18T06:39:18.246Z,555.00
2023-04-18T06:40:18.233Z,549.00
2023-04-18T06:41:18.202Z,547.00
2023-04-18T06:42:20.161Z,542.00
2023-04-18T06:43:18.211Z,544.00
2023-04-18T06:44:18.179Z,555.00
2023-04-18T06:45:18.188Z,549.00
2023-04-18T06:46:18.262Z,545.00
2023-04-18T06:47:18.208Z,543.00
2023-04-18T06:48:18.209Z,538.00
2023-04-18T06:49:18.190Z,540.00
2023-04-18T06:50:18.145Z,548.00
2023-04-18T06:51:18.140Z,545.00
2023-04-18T06:52:18.151Z,543.00
2023-04-18T06:53:18.175Z,544.00
2023-04-18T06:54:18.117Z,537.00
2023-04-18T06:55:18.124Z,539.00
2023-04-18T06:56:18.113Z,537.00
2023-04-18T06:57:18.116Z,544.00
2023-04-18T06:58:18.112Z,546.00
2023-04-18T06:59:18.109Z,550.00
2023-04-18T07:00:18.110Z,546.00
2023-04-18T07:01:18.112Z,549.00
2023-04-18T07:02:18.115Z,546.00
2023-04-18T07:03:18.413Z,545.00
2023-04-18T07:04:18.598Z,548.00
2023-04-18T07:05:18.056Z,547.00
2023-04-18T07:06:18.033Z,543.00
2023-04-18T07:07:18.048Z,544.00
2023-04-18T07:09:37.200Z,500.00
2023-04-18T07:10:37.138Z,500.00
2023-04-18T07:11:37.151Z,500.00
2023-04-18T07:12:37.149Z,500.00
2023-04-18T07:13:37.147Z,500.00
2023-04-18T07:14:37.140Z,501.00
2023-04-18T07:15:37.148Z,503.00
2023-04-18T07:16:37.145Z,502.00
2023-04-18T07:17:37.185Z,506.00
2023-04-18T07:18:38.431Z,500.00
2023-04-18T07:19:37.095Z,505.00
2023-04-18T07:20:37.099Z,502.00
2023-04-18T07:21:37.058Z,498.00
2023-04-18T07:22:37.056Z,504.00
2023-04-18T07:23:37.075Z,502.00
2023-04-18T07:24:37.059Z,503.00
2023-04-18T07:25:37.061Z,502.00
2023-04-18T07:26:37.109Z,501.00
2023-04-18T07:27:37.085Z,503.00
2023-04-18T07:28:37.030Z,511.00
2023-04-18T07:29:37.051Z,658.00
2023-04-18T07:30:37.056Z,641.00
2023-04-18T07:31:37.017Z,649.00
2023-04-18T07:32:37.057Z,652.00
2023-04-18T07:33:37.023Z,691.00
2023-04-18T07:34:36.969Z,729.00
2023-04-18T07:35:37.011Z,742.00
2023-04-18T07:36:36.976Z,753.00
2023-04-18T07:37:36.983Z,742.00
2023-04-18T07:38:36.967Z,716.00
2023-04-18T07:39:45.489Z,723.00
2023-04-18T07:40:37.090Z,727.00
2023-04-18T07:41:39.869Z,728.00
2023-04-18T07:42:36.986Z,725.00
2023-04-18T07:43:49.075Z,728.00
2023-04-18T07:44:38.708Z,728.00
2023-04-18T07:45:37.907Z,736.00
2023-04-18T07:46:37.050Z,757.00
2023-04-18T07:47:36.920Z,782.00
2023-04-18T07:48:36.930Z,814.00
2023-04-18T07:49:36.907Z,826.00
2023-04-18T07:50:36.930Z,884.00
2023-04-18T07:51:36.868Z,857.00
2023-04-18T07:52:38.212Z,848.00
2023-04-18T07:53:36.898Z,952.00
2023-04-18T07:54:36.879Z,997.00
2023-04-18T07:55:36.856Z,924.00
2023-04-18T07:56:36.881Z,860.00
2023-04-18T07:57:36.855Z,831.00
2023-04-18T07:58:36.907Z,820.00
2023-04-18T07:59:36.916Z,779.00
2023-04-18T08:00:36.876Z,756.00
2023-04-18T08:01:36.837Z,733.00
2023-04-18T08:02:36.972Z,695.00
2023-04-18T08:03:37.086Z,682.00
2023-04-18T08:04:36.948Z,664.00
2023-04-18T08:05:36.915Z,661.00
2023-04-18T08:06:36.908Z,663.00
2023-04-18T08:07:36.869Z,657.00
2023-04-18T08:08:36.930Z,658.00
2023-04-18T08:09:36.884Z,651.00
2023-04-18T08:10:36.878Z,649.00
2023-04-18T08:11:36.871Z,646.00
2023-04-18T08:12:36.882Z,636.00
2023-04-18T08:13:36.967Z,634.00
2023-04-18T08:14:36.979Z,634.00
2023-04-18T08:15:36.900Z,631.00
2023-04-18T08:16:36.980Z,630.00
2023-04-18T08:17:36.977Z,641.00
2023-04-18T08:18:36.898Z,648.00
2023-04-18T08:19:36.911Z,648.00
2023-04-18T08:20:36.929Z,651.00
2023-04-18T08:21:36.895Z,635.00
2023-04-18T08:22:44.072Z,632.00
2023-04-18T08:23:37.889Z,632.00
2023-04-18T08:24:36.859Z,633.00
2023-04-18T08:25:36.898Z,636.00
2023-04-18T08:26:36.926Z,639.00
2023-04-18T08:27:36.859Z,628.00
2023-04-18T08:28:36.828Z,626.00
2023-04-18T08:29:36.819Z,625.00
2023-04-18T08:30:36.819Z,622.00
2023-04-18T08:31:36.909Z,618.00
2023-04-18T08:32:36.872Z,622.00
2023-04-18T08:33:36.864Z,625.00
2023-04-18T08:34:36.799Z,630.00
2023-04-18T08:35:36.840Z,628.00
2023-04-18T08:36:36.791Z,626.00
2023-04-18T08:37:36.810Z,635.00
2023-04-18T08:38:36.794Z,643.00
2023-04-18T08:39:36.778Z,640.00
2023-04-18T08:40:39.074Z,662.00
2023-04-18T08:41:36.826Z,661.00
2023-04-18T08:42:36.862Z,664.00
2023-04-18T08:43:36.894Z,681.00
2023-04-18T08:44:38.520Z,673.00
2023-04-18T08:45:37.313Z,685.00
2023-04-18T08:46:37.061Z,687.00
2023-04-18T08:47:37.194Z,693.00
2023-04-18T08:48:37.097Z,690.00
2023-04-18T08:49:37.112Z,714.00
2023-04-18T08:50:37.086Z,684.00
2023-04-18T08:51:37.197Z,762.00
2023-04-18T08:52:37.177Z,717.00
2023-04-18T08:53:37.145Z,766.00
2023-04-18T08:54:37.154Z,754.00
2023-04-18T08:55:37.130Z,759.00
2023-04-18T08:56:37.128Z,637.00
2023-04-18T08:57:37.222Z,494.00
2023-04-18T08:58:37.245Z,494.00
2023-04-18T08:59:37.250Z,493.00
2023-04-18T09:00:37.270Z,500.00
2023-04-18T09:01:37.537Z,498.00
2023-04-18T09:02:37.362Z,506.00
2023-04-18T09:03:37.708Z,502.00
2023-04-18T09:04:37.437Z,482.00
2023-04-18T09:05:37.473Z,493.00
2023-04-18T09:06:37.480Z,528.00
2023-04-18T09:07:37.545Z,570.00
2023-04-18T09:08:37.591Z,597.00
2023-04-18T09:09:37.650Z,579.00
2023-04-18T09:10:37.730Z,587.00
2023-04-18T09:11:37.768Z,569.00
2023-04-18T09:12:37.867Z,618.00
2023-04-18T09:13:37.876Z,657.00
2023-04-18T09:14:37.910Z,779.00
2023-04-18T09:15:37.940Z,798.00
2023-04-18T09:16:38.054Z,836.00
2023-04-18T09:17:38.044Z,834.00
2023-04-18T09:18:38.012Z,836.00
2023-04-18T09:19:38.018Z,832.00
2023-04-18T09:20:38.351Z,795.00
2023-04-18T09:21:37.977Z,787.00
2023-04-18T09:22:39.979Z,785.00
2023-04-18T09:23:38.074Z,832.00
2023-04-18T09:24:38.095Z,860.00
2023-04-18T09:25:39.869Z,865.00
2023-04-18T09:26:38.165Z,899.00
2023-04-18T09:27:38.181Z,896.00
2023-04-18T09:28:38.117Z,899.00
2023-04-18T09:29:38.147Z,925.00
2023-04-18T09:30:38.212Z,954.00
2023-04-18T09:31:38.138Z,955.00
2023-04-18T09:32:38.129Z,984.00
2023-04-18T09:33:38.166Z,996.00
2023-04-18T09:34:38.086Z,1054.00
2023-04-18T09:35:38.090Z,1045.00
2023-04-18T09:36:38.114Z,1200.00
2023-04-18T09:37:38.097Z,1172.00
2023-04-18T09:38:38.103Z,1420.00
2023-04-18T09:39:38.057Z,1830.00
2023-04-18T09:40:38.069Z,1864.00
2023-04-18T09:41:38.059Z,2241.00
2023-04-18T09:42:38.046Z,2209.00
2023-04-18T09:43:38.038Z,2422.00
2023-04-18T09:44:38.058Z,2669.00
2023-04-18T09:45:38.064Z,2529.00
2023-04-18T09:46:38.044Z,2360.00
2023-04-18T09:47:38.040Z,2420.00
2023-04-18T09:48:38.025Z,2328.00
2023-04-18T09:49:38.102Z,2416.00
2023-04-18T09:50:37.999Z,2616.00
2023-04-18T09:51:37.978Z,2585.00
2023-04-18T09:52:37.969Z,2683.00
2023-04-18T09:53:37.965Z,2770.00
2023-04-18T09:54:37.936Z,2849.00
2023-04-18T09:55:37.992Z,2810.00
2023-04-18T09:56:37.941Z,2638.00
2023-04-18T09:57:37.940Z,2670.00
2023-04-18T09:58:37.907Z,2551.00
2023-04-18T09:59:37.907Z,2480.00
2023-04-18T10:00:37.940Z,2515.00
2023-04-18T10:01:38.018Z,2512.00
2023-04-18T10:02:37.965Z,2472.00
2023-04-18T10:03:38.035Z,2400.00
2023-04-18T10:04:37.983Z,2395.00
2023-04-18T10:05:37.898Z,2262.00
2023-04-18T10:06:37.923Z,2344.00
2023-04-18T10:07:37.949Z,2298.00
2023-04-18T10:08:38.048Z,2036.00
2023-04-18T10:09:38.053Z,1812.00
2023-04-18T10:10:39.183Z,1743.00
2023-04-18T10:11:38.121Z,1731.00
2023-04-18T10:12:38.128Z,1706.00
2023-04-18T10:13:38.209Z,1674.00
2023-04-18T10:14:38.302Z,1702.00
2023-04-18T10:15:38.401Z,1700.00
2023-04-18T10:16:38.394Z,1717.00
2023-04-18T10:17:38.461Z,1616.00
2023-04-18T10:18:38.614Z,1605.00
2023-04-18T10:19:38.507Z,1611.00
2023-04-18T10:20:38.551Z,1409.00
2023-04-18T10:21:38.627Z,1023.00
2023-04-18T10:22:38.710Z,869.00
2023-04-18T10:23:38.761Z,950.00
2023-04-18T10:24:38.768Z,897.00
2023-04-18T10:25:38.797Z,922.00
2023-04-18T10:26:38.838Z,823.00
2023-04-18T10:27:38.887Z,664.00
2023-04-18T10:28:39.467Z,716.00
2023-04-18T10:29:38.991Z,677.00
2023-04-18T10:30:38.993Z,667.00
2023-04-18T10:31:39.101Z,610.00
2023-04-18T10:32:39.122Z,589.00
2023-04-18T10:33:41.107Z,584.00
2023-04-18T10:34:39.073Z,586.00
2023-04-18T10:35:41.252Z,567.00
2023-04-18T10:36:39.078Z,558.00
2023-04-18T10:37:39.066Z,518.00
2023-04-18T10:38:39.054Z,444.00
2023-04-18T10:39:39.031Z,400.00
2023-04-18T10:40:39.052Z,400.00
2023-04-18T10:41:39.028Z,458.00
2023-04-18T10:42:39.020Z,505.00
2023-04-18T10:43:39.007Z,503.00
2023-04-18T10:44:39.022Z,527.00
2023-04-18T10:45:39.121Z,519.00
2023-04-18T10:46:39.135Z,541.00
2023-04-18T10:47:39.249Z,529.00
2023-04-18T10:48:39.290Z,539.00
2023-04-18T10:49:39.272Z,542.00
2023-04-18T10:50:39.276Z,549.00
2023-04-18T10:51:39.376Z,578.00
2023-04-18T10:52:39.435Z,592.00
2023-04-18T10:53:39.464Z,633.00
2023-04-18T10:54:39.481Z,667.00
2023-04-18T10:55:39.506Z,727.00
2023-04-18T10:56:39.537Z,780.00
2023-04-18T10:57:39.584Z,811.00
2023-04-18T10:58:39.600Z,803.00
2023-04-18T10:59:39.604Z,873.00
2023-04-18T11:00:39.622Z,911.00
2023-04-18T11:01:39.762Z,982.00
2023-04-18T11:02:39.835Z,1151.00
2023-04-18T11:03:39.661Z,1375.00
2023-04-18T11:04:39.594Z,1338.00
2023-04-18T11:05:39.588Z,1214.00
2023-04-18T11:06:39.651Z,1257.00
2023-04-18T11:07:39.599Z,1242.00
2023-04-18T11:08:39.602Z,1242.00
2023-04-18T11:09:39.653Z,1286.00
2023-04-18T11:10:39.669Z,1241.00
2023-04-18T11:11:39.706Z,1257.00
2023-04-18T11:12:39.760Z,1282.00
2023-04-18T11:13:39.791Z,1299.00
2023-04-18T11:14:39.790Z,1179.00
2023-04-18T11:15:39.796Z,1063.00
2023-04-18T11:16:39.995Z,1105.00
2023-04-18T11:17:40.075Z,1144.00
2023-04-18T11:18:39.858Z,1140.00
2023-04-18T11:19:39.874Z,1180.00
2023-04-18T11:20:39.987Z,1199.00
2023-04-18T11:21:39.959Z,1221.00
2023-04-18T11:22:40.034Z,1153.00
2023-04-18T11:23:40.000Z,1033.00
2023-04-18T11:24:40.027Z,1036.00
2023-04-18T11:25:40.062Z,1248.00
2023-04-18T11:26:40.030Z,1250.00
2023-04-18T11:27:40.041Z,1291.00
2023-04-18T11:28:40.046Z,1351.00
2023-04-18T11:29:40.115Z,1379.00
2023-04-18T11:30:40.077Z,1390.00
2023-04-18T11:31:40.149Z,1348.00
2023-04-18T11:32:40.174Z,1254.00
2023-04-18T11:33:40.148Z,1274.00
2023-04-18T11:34:40.173Z,1261.00
2023-04-18T11:35:40.284Z,1360.00
2023-04-18T11:36:40.156Z,1307.00
2023-04-18T11:37:40.172Z,1269.00
2023-04-18T11:38:40.156Z,1232.00
2023-04-18T11:39:40.165Z,1216.00
2023-04-18T11:40:40.120Z,1246.00
2023-04-18T11:41:40.161Z,1224.00
2023-04-18T11:42:40.136Z,1184.00
2023-04-18T11:43:40.149Z,1169.00
2023-04-18T11:44:40.160Z,1192.00
2023-04-18T11:45:40.195Z,1176.00
2023-04-18T11:46:40.148Z,1225.00
2023-04-18T11:47:40.198Z,1235.00
2023-04-18T11:48:40.190Z,1204.00
2023-04-18T11:49:40.186Z,1214.00
2023-04-18T11:50:40.157Z,1130.00
2023-04-18T11:51:40.164Z,1102.00
2023-04-18T11:52:40.135Z,1130.00
2023-04-18T11:53:40.222Z,1208.00
2023-04-18T11:54:40.158Z,1251.00
2023-04-18T11:55:40.136Z,1285.00
2023-04-18T11:56:40.132Z,1300.00
2023-04-18T11:57:40.211Z,1225.00
2023-04-18T11:58:40.122Z,1203.00
2023-04-18T11:59:40.119Z,1216.00
2023-04-18T12:00:40.172Z,1216.00
2023-04-18T12:01:40.108Z,1175.00
2023-04-18T12:02:40.341Z,1180.00
2023-04-18T12:03:40.304Z,1141.00
2023-04-18T12:04:40.323Z,1153.00
2023-04-18T12:05:40.170Z,1192.00
2023-04-18T12:06:40.103Z,1181.00
2023-04-18T12:07:40.124Z,1147.00
2023-04-18T12:08:40.145Z,1086.00
2023-04-18T12:09:40.115Z,1101.00
2023-04-18T12:10:40.108Z,1056.00
2023-04-18T12:11:40.117Z,1050.00
2023-04-18T12:12:40.080Z,982.00
2023-04-18T12:13:40.249Z,1032.00
2023-04-18T12:14:40.096Z,884.00
2023-04-18T12:15:40.227Z,893.00
2023-04-18T12:16:40.053Z,857.00
2023-04-18T12:17:40.131Z,891.00
2023-04-18T12:18:40.109Z,877.00
2023-04-18T12:19:40.078Z,879.00
2023-04-18T12:20:40.127Z,707.00
2023-04-18T12:21:40.115Z,778.00
2023-04-18T12:22:40.141Z,780.00
2023-04-18T12:23:40.157Z,785.00
2023-04-18T12:24:40.154Z,760.00
2023-04-18T12:25:40.168Z,683.00
2023-04-18T12:26:40.189Z,668.00
2023-04-18T12:27:40.181Z,665.00
2023-04-18T12:28:40.253Z,654.00
2023-04-18T12:29:40.295Z,602.00
2023-04-18T12:30:40.308Z,587.00
2023-04-18T12:31:40.400Z,581.00
2023-04-18T12:32:40.399Z,595.00
2023-04-18T12:33:40.468Z,613.00
2023-04-18T12:34:40.492Z,634.00
2023-04-18T12:35:40.547Z,610.00
2023-04-18T12:36:40.666Z,617.00
2023-04-18T12:37:40.629Z,616.00
2023-04-18T12:38:40.711Z,618.00
2023-04-18T12:39:40.725Z,616.00
2023-04-18T12:40:40.802Z,631.00
2023-04-18T12:41:40.816Z,637.00
2023-04-18T12:42:40.845Z,632.00
2023-04-18T12:43:40.882Z,631.00
2023-04-18T12:44:40.958Z,667.00
2023-04-18T12:45:40.973Z,656.00
2023-04-18T12:46:41.117Z,651.00
2023-04-18T12:47:41.095Z,604.00
2023-04-18T12:48:41.055Z,612.00
2023-04-18T12:49:41.111Z,610.00
2023-04-18T12:50:41.180Z,602.00
2023-04-18T12:51:41.185Z,614.00
2023-04-18T12:52:41.206Z,628.00
2023-04-18T12:53:41.237Z,630.00
2023-04-18T12:54:41.306Z,617.00
2023-04-18T12:55:41.381Z,633.00
2023-04-18T12:56:41.350Z,610.00
2023-04-18T12:57:41.401Z,643.00
2023-04-18T12:58:41.452Z,641.00
2023-04-18T12:59:41.509Z,629.00
2023-04-18T13:00:41.577Z,621.00
2023-04-18T13:01:41.585Z,614.00
2023-04-18T13:02:41.720Z,613.00
2023-04-18T13:03:41.751Z,602.00
2023-04-18T13:04:41.899Z,603.00
2023-04-18T13:05:41.712Z,600.00
2023-04-18T13:06:41.756Z,605.00
2023-04-18T13:07:41.792Z,628.00
2023-04-18T13:08:41.817Z,637.00
2023-04-18T13:09:41.828Z,613.00
2023-04-18T13:10:41.914Z,602.00
2023-04-18T13:11:41.925Z,607.00
2023-04-18T13:12:41.936Z,583.00
2023-04-18T13:13:41.968Z,555.00
2023-04-18T13:14:41.980Z,542.00
2023-04-18T13:15:42.034Z,548.00
2023-04-18T13:16:43.783Z,504.00
2023-04-18T13:17:42.247Z,539.00
2023-04-18T13:18:42.113Z,520.00
2023-04-18T13:19:42.170Z,511.00
2023-04-18T13:20:42.213Z,502.00
2023-04-18T13:21:42.245Z,532.00
2023-04-18T13:22:42.284Z,535.00
2023-04-18T13:23:42.309Z,527.00
2023-04-18T13:24:42.346Z,505.00
2023-04-18T13:25:42.415Z,524.00
2023-04-18T13:26:42.460Z,514.00
2023-04-18T13:27:42.500Z,497.00
2023-04-18T13:28:42.557Z,514.00
2023-04-18T13:29:42.597Z,500.00
2023-04-18T13:30:42.660Z,516.00
2023-04-18T13:31:42.735Z,526.00
2023-04-18T13:32:43.199Z,503.00
2023-04-18T13:33:42.792Z,520.00
2023-04-18T13:34:42.856Z,557.00
2023-04-18T13:35:42.878Z,567.00
2023-04-18T13:36:42.952Z,592.00
2023-04-18T13:37:42.967Z,616.00
2023-04-18T13:38:43.002Z,596.00
2023-04-18T13:39:43.083Z,584.00
2023-04-18T13:40:43.080Z,572.00
2023-04-18T13:41:43.110Z,562.00
2023-04-18T13:42:43.148Z,635.00
2023-04-18T13:43:43.144Z,747.00
2023-04-18T13:44:43.194Z,716.00
2023-04-18T13:45:43.236Z,775.00
2023-04-18T13:46:43.198Z,826.00
2023-04-18T13:47:43.252Z,915.00
2023-04-18T13:48:43.203Z,894.00
2023-04-18T13:49:43.351Z,899.00
2023-04-18T13:50:43.260Z,720.00
2023-04-18T13:51:43.273Z,729.00
2023-04-18T13:52:43.228Z,655.00
2023-04-18T13:53:43.268Z,766.00
2023-04-18T13:54:43.237Z,801.00
2023-04-18T13:55:43.249Z,763.00
2023-04-18T13:56:43.284Z,813.00
2023-04-18T13:57:43.297Z,796.00
2023-04-18T13:58:43.246Z,807.00
2023-04-18T13:59:43.262Z,837.00
2023-04-18T14:00:43.257Z,858.00
2023-04-18T14:01:43.255Z,896.00
2023-04-18T14:02:43.353Z,919.00
2023-04-18T14:03:44.077Z,911.00
2023-04-18T14:04:43.360Z,978.00
2023-04-18T14:05:43.347Z,1050.00
2023-04-18T14:06:43.288Z,1071.00
2023-04-18T14:07:43.288Z,1082.00
2023-04-18T14:08:43.346Z,1086.00
2023-04-18T14:09:43.391Z,1124.00
2023-04-18T14:10:43.420Z,1210.00
2023-04-18T14:11:43.506Z,1146.00
2023-04-18T14:12:43.490Z,1150.00
2023-04-18T14:13:43.560Z,1171.00
2023-04-18T14:14:43.588Z,1163.00
2023-04-18T14:15:43.706Z,1221.00
2023-04-18T14:16:43.704Z,1244.00
2023-04-18T14:17:45.781Z,1261.00
2023-04-18T14:18:43.814Z,1277.00
2023-04-18T14:19:43.915Z,1270.00
2023-04-18T14:20:43.926Z,1295.00
2023-04-18T14:21:44.424Z,1293.00
2023-04-18T14:22:44.071Z,1323.00
2023-04-18T14:23:44.143Z,1349.00
2023-04-18T14:24:44.226Z,1352.00
2023-04-18T14:25:44.280Z,1348.00
2023-04-18T14:26:44.274Z,1355.00
2023-04-18T14:27:44.420Z,1365.00
2023-04-18T14:28:44.428Z,1377.00
2023-04-18T14:29:44.473Z,1375.00
2023-04-18T14:30:44.538Z,1383.00
2023-04-18T14:31:44.733Z,1366.00
2023-04-18T14:32:44.671Z,1380.00
2023-04-18T14:33:44.712Z,1384.00
2023-04-18T14:34:44.746Z,1385.00
2023-04-18T14:35:44.777Z,1379.00
2023-04-18T14:36:44.843Z,1393.00
2023-04-18T14:37:44.928Z,1388.00
2023-04-18T14:38:44.931Z,1393.00
2023-04-18T14:39:44.965Z,1398.00
2023-04-18T14:40:45.007Z,1405.00
2023-04-18T14:41:45.083Z,1405.00
2023-04-18T14:42:45.124Z,1397.00
2023-04-18T14:43:45.183Z,1397.00
2023-04-18T14:44:45.270Z,1393.00
2023-04-18T14:45:45.288Z,1394.00
2023-04-18T14:46:45.359Z,1399.00
2023-04-18T14:47:45.449Z,1390.00
2023-04-18T14:48:45.454Z,1367.00
2023-04-18T14:49:45.496Z,1410.00
2023-04-18T14:50:45.519Z,1400.00
2023-04-18T14:51:45.552Z,1402.00
2023-04-18T14:52:45.601Z,1400.00
2023-04-18T14:53:45.705Z,1400.00
2023-04-18T14:54:45.740Z,1400.00
2023-04-18T14:55:45.751Z,1397.00
2023-04-18T14:56:45.795Z,1393.00
2023-04-18T14:57:45.860Z,1406.00
2023-04-18T14:58:45.912Z,1401.00
2023-04-18T14:59:45.967Z,1382.00
2023-04-18T15:00:46.010Z,1386.00
2023-04-18T15:01:46.081Z,1403.00
2023-04-18T15:02:46.229Z,1411.00
2023-04-18T15:03:46.372Z,1396.00
2023-04-18T15:04:46.225Z,1385.00
2023-04-18T15:05:46.233Z,1371.00
2023-04-18T15:06:46.265Z,1390.00
2023-04-18T15:07:46.292Z,1397.00
2023-04-18T15:08:46.334Z,1408.00
2023-04-18T15:09:46.378Z,1410.00
2023-04-18T15:10:46.439Z,1400.00
2023-04-18T15:11:46.452Z,1414.00
2023-04-18T15:12:46.437Z,1408.00
2023-04-18T15:13:46.515Z,1395.00
2023-04-18T15:14:46.518Z,1381.00
2023-04-18T15:15:46.583Z,1420.00
2023-04-18T15:16:46.643Z,1403.00
2023-04-18T15:17:46.704Z,1405.00
2023-04-18T15:18:46.686Z,1398.00
2023-04-18T15:19:46.761Z,1389.00
2023-04-18T15:20:46.791Z,1393.00
2023-04-18T15:21:46.803Z,1398.00
2023-04-18T15:22:46.854Z,1387.00
2023-04-18T15:23:46.870Z,1378.00
2023-04-18T15:24:46.921Z,1380.00
2023-04-18T15:25:46.934Z,1370.00
2023-04-18T15:26:47.001Z,1363.00
2023-04-18T15:27:47.040Z,1390.00
2023-04-18T15:28:47.072Z,1395.00
2023-04-18T15:29:47.111Z,1378.00
2023-04-18T15:30:47.117Z,1385.00
2023-04-18T15:31:47.178Z,1372.00
2023-04-18T15:32:47.260Z,1369.00
2023-04-18T15:33:47.288Z,1386.00
2023-04-18T15:34:47.308Z,1352.00
2023-04-18T15:35:47.293Z,1375.00
2023-04-18T15:36:47.373Z,1355.00
2023-04-18T15:37:47.404Z,1358.00
2023-04-18T15:38:47.429Z,1380.00
2023-04-18T15:39:47.502Z,1359.00
2023-04-18T15:40:47.517Z,1338.00
2023-04-18T15:41:47.573Z,1379.00
2023-04-18T15:42:47.561Z,1359.00
2023-04-18T15:43:47.607Z,1370.00
2023-04-18T15:44:47.646Z,1399.00
2023-04-18T15:45:47.728Z,1362.00
2023-04-18T15:46:47.729Z,1346.00
2023-04-18T15:47:47.962Z,1339.00
2023-04-18T15:48:47.831Z,1361.00
2023-04-18T15:49:47.875Z,1367.00
2023-04-18T15:50:47.878Z,1329.00
2023-04-18T15:51:47.924Z,1379.00
2023-04-18T15:52:47.943Z,1352.00
2023-04-18T15:53:47.973Z,1351.00
2023-04-18T15:54:48.037Z,1355.00
2023-04-18T15:55:48.067Z,1369.00
2023-04-18T15:56:48.115Z,1362.00
2023-04-18T15:57:48.134Z,1349.00
2023-04-18T15:58:48.167Z,1378.00
2023-04-18T15:59:48.256Z,1350.00
2023-04-18T16:00:48.248Z,1354.00
2023-04-18T16:01:48.346Z,1364.00
2023-04-18T16:02:48.416Z,1362.00
2023-04-18T16:03:48.460Z,1343.00
2023-04-18T16:04:49.190Z,1368.00
2023-04-18T16:05:48.481Z,1336.00
2023-04-18T16:06:48.519Z,1336.00
2023-04-18T16:07:48.566Z,1326.00
2023-04-18T16:08:48.585Z,1348.00
2023-04-18T16:09:48.608Z,1346.00
2023-04-18T16:10:48.724Z,1341.00
2023-04-18T16:11:48.777Z,1356.00
2023-04-18T16:12:48.776Z,1319.00
2023-04-18T16:13:48.924Z,1329.00
2023-04-18T16:14:48.868Z,1327.00
2023-04-18T16:15:48.920Z,1361.00
2023-04-18T16:16:48.988Z,1322.00
2023-04-18T16:17:49.065Z,1329.00
2023-04-18T16:18:49.049Z,1334.00
2023-04-18T16:19:49.121Z,1328.00
2023-04-18T16:20:49.128Z,1339.00
2023-04-18T16:21:49.215Z,1342.00
2023-04-18T16:22:49.245Z,1315.00
2023-04-18T16:23:49.279Z,1341.00
2023-04-18T16:24:49.359Z,1345.00
2023-04-18T16:25:49.405Z,1338.00
2023-04-18T16:26:49.429Z,1330.00
2023-04-18T16:27:49.548Z,1302.00
2023-04-18T16:28:49.559Z,1335.00
2023-04-18T16:29:49.611Z,1339.00
2023-04-18T16:30:49.664Z,1342.00
2023-04-18T16:31:49.735Z,1333.00
2023-04-18T16:32:49.889Z,1315.00
2023-04-18T16:33:49.890Z,1348.00
2023-04-18T16:34:49.898Z,1339.00
2023-04-18T16:35:49.952Z,1341.00
2023-04-18T16:36:51.121Z,1325.00
2023-04-18T16:37:50.055Z,1334.00
2023-04-18T16:38:50.079Z,1311.00
2023-04-18T16:39:50.205Z,1325.00
2023-04-18T16:40:50.196Z,1326.00
2023-04-18T16:41:50.266Z,1307.00
2023-04-18T16:42:50.314Z,1328.00
2023-04-18T16:43:50.378Z,1331.00
2023-04-18T16:44:50.421Z,1315.00
2023-04-18T16:45:50.480Z,1327.00
2023-04-18T16:46:50.616Z,1322.00
2023-04-18T16:47:50.634Z,1333.00
2023-04-18T16:48:52.379Z,1337.00
2023-04-18T16:49:50.702Z,1330.00
2023-04-18T16:50:50.770Z,1326.00
2023-04-18T16:51:50.819Z,1302.00
2023-04-18T16:52:50.868Z,1321.00
2023-04-18T16:53:50.916Z,1331.00
2023-04-18T16:54:52.491Z,1316.00
2023-04-18T16:55:51.064Z,1317.00
2023-04-18T16:56:51.102Z,1315.00
2023-04-18T16:57:51.145Z,1321.00
2023-04-18T16:58:51.184Z,1320.00
2023-04-18T16:59:51.400Z,1318.00
2023-04-18T17:00:51.325Z,1321.00
